Time;durP1;ratioP1;P1;durP2;ratioP2;P2;SDS_P1;SDS_P2;PMS_P1;PMS_P2;Temp;Humidity;BMP_temperature;BMP_pressure;BME280_temperature;BME280_humidity;BME280_pressure;Samples;Min_cycle;Max_cycle;Signal;HPM_P1;HPM_P2
2022/09/11 00:02:47;;;;;;;6.63;2.10;;;;;;;;;;6210212;23;20622;-90
2022/09/11 00:05:52;;;;;;;5.00;2.10;;;;;;;;;;6208790;23;20167;-89
2022/09/11 00:08:59;;;;;;;6.55;2.03;;;;;;;;;;6207523;23;20164;-89
2022/09/11 00:12:06;;;;;;;2.83;1.80;;;;;;;;;;6209974;23;20199;-91
2022/09/11 00:15:12;;;;;;;7.80;2.65;;;;;;;;;;6208289;23;20171;-89
2022/09/11 00:18:20;;;;;;;7.63;2.00;;;;;;;;;;6208767;23;20162;-89
2022/09/11 00:21:26;;;;;;;5.22;2.17;;;;;;;;;;6214678;23;20159;-89
2022/09/11 00:24:31;;;;;;;5.25;2.13;;;;;;;;;;6207222;23;20174;-90
2022/09/11 00:27:36;;;;;;;6.47;2.00;;;;;;;;;;6207431;23;20198;-90
2022/09/11 00:30:44;;;;;;;6.72;2.75;;;;;;;;;;6208688;23;20182;-89
2022/09/11 00:33:50;;;;;;;6.70;1.77;;;;;;;;;;6207229;23;20218;-90
2022/09/11 00:36:55;;;;;;;6.70;2.50;;;;;;;;;;6207009;23;20175;-90
2022/09/11 00:40:00;;;;;;;4.70;1.77;;;;;;;;;;6206669;23;20179;-89
2022/09/11 00:43:10;;;;;;;4.15;1.48;;;;;;;;;;6206101;23;20174;-89
2022/09/11 00:46:17;;;;;;;7.47;2.00;;;;;;;;;;6208431;23;20177;-90
2022/09/11 00:49:24;;;;;;;3.58;1.80;;;;;;;;;;6208670;23;20217;-89
2022/09/11 00:52:30;;;;;;;5.35;1.60;;;;;;;;;;6208379;23;20179;-89
2022/09/11 00:55:36;;;;;;;5.68;1.48;;;;;;;;;;6206282;23;20622;-89
2022/09/11 00:58:43;;;;;;;5.25;1.75;;;;;;;;;;6194967;23;20183;-89
2022/09/11 01:01:49;;;;;;;4.45;1.80;;;;;;;;;;6195695;23;20167;-90
2022/09/11 01:04:54;;;;;;;6.53;1.73;;;;;;;;;;6193635;23;20175;-89
2022/09/11 01:07:59;;;;;;;5.38;1.40;;;;;;;;;;6195193;23;20183;-90
2022/09/11 01:11:12;;;;;;;2.50;1.50;;;;;;;;;;6194668;23;20676;-90
2022/09/11 01:14:30;;;;;;;4.38;1.52;;;;;;;;;;6195409;23;20171;-90
2022/09/11 01:17:42;;;;;;;8.40;1.95;;;;;;;;;;6196743;23;20279;-89
2022/09/11 01:20:58;;;;;;;5.10;1.65;;;;;;;;;;6197145;23;20176;-90
2022/09/11 01:24:08;;;;;;;8.82;1.50;;;;;;;;;;6195765;23;20168;-88
2022/09/11 01:27:46;;;;;;;4.05;1.52;;;;;;;;;;6196576;23;20190;-90
2022/09/11 01:30:56;;;;;;;2.95;1.65;;;;;;;;;;6116658;23;20192;-89
2022/09/11 01:34:05;;;;;;;2.67;1.80;;;;;;;;;;6118079;23;20177;-89
2022/09/11 01:37:13;;;;;;;4.68;1.30;;;;;;;;;;6196206;23;20179;-89
2022/09/11 01:40:20;;;;;;;5.43;1.40;;;;;;;;;;6196068;23;20155;-90
2022/09/11 01:43:29;;;;;;;4.22;1.70;;;;;;;;;;6194604;23;20172;-89
2022/09/11 01:47:18;;;;;;;2.90;1.50;;;;;;;;;;6194897;23;20255;-89
2022/09/11 01:50:25;;;;;;;2.95;1.70;;;;;;;;;;6192948;23;20172;-90
2022/09/11 01:53:35;;;;;;;4.68;1.60;;;;;;;;;;6193464;23;20179;-91
2022/09/11 01:56:44;;;;;;;5.78;1.77;;;;;;;;;;6197952;23;20172;-89
2022/09/11 01:59:52;;;;;;;3.70;1.20;;;;;;;;;;6206723;23;20171;-89
2022/09/11 02:03:02;;;;;;;2.63;1.52;;;;;;;;;;6207000;23;20614;-89
2022/09/11 02:06:09;;;;;;;7.95;1.60;;;;;;;;;;6206069;23;20179;-89
2022/09/11 02:09:16;;;;;;;4.68;1.50;;;;;;;;;;6207311;23;20266;-90
2022/09/11 02:12:25;;;;;;;3.25;1.42;;;;;;;;;;6207540;23;20214;-89
2022/09/11 02:15:33;;;;;;;2.28;1.15;;;;;;;;;;6206854;23;20183;-90
2022/09/11 02:18:42;;;;;;;2.75;1.70;;;;;;;;;;6208362;23;20171;-89
2022/09/11 02:21:49;;;;;;;2.30;1.48;;;;;;;;;;6207537;23;20175;-91
2022/09/11 02:24:55;;;;;;;3.65;1.73;;;;;;;;;;6208451;23;20170;-91
2022/09/11 02:28:00;;;;;;;6.90;1.67;;;;;;;;;;6206497;23;20527;-89
2022/09/11 02:31:06;;;;;;;2.80;1.55;;;;;;;;;;6205691;23;20167;-90
2022/09/11 02:34:12;;;;;;;5.63;1.58;;;;;;;;;;6206532;23;20159;-90
2022/09/11 02:37:22;;;;;;;4.28;1.60;;;;;;;;;;6204339;23;20607;-89
2022/09/11 02:40:42;;;;;;;8.15;1.63;;;;;;;;;;6206914;23;20166;-90
2022/09/11 02:43:53;;;;;;;2.88;1.60;;;;;;;;;;6206568;23;20175;-90
2022/09/11 02:47:28;;;;;;;6.68;1.70;;;;;;;;;;6205328;23;20194;-89
2022/09/11 02:50:34;;;;;;;5.85;1.63;;;;;;;;;;6206144;23;20172;-89
2022/09/11 02:53:47;;;;;;;4.57;1.70;;;;;;;;;;6207172;23;20407;-90
2022/09/11 02:56:56;;;;;;;2.28;1.40;;;;;;;;;;6208243;23;20529;-90
2022/09/11 03:00:02;;;;;;;2.67;1.42;;;;;;;;;;6206336;23;20187;-91
2022/09/11 03:03:09;;;;;;;5.68;1.80;;;;;;;;;;6207311;23;20610;-89
2022/09/11 03:06:17;;;;;;;8.73;2.42;;;;;;;;;;6209240;23;20167;-89
2022/09/11 03:09:25;;;;;;;3.60;1.95;;;;;;;;;;6206576;23;20163;-90
2022/09/11 03:12:36;;;;;;;5.18;1.38;;;;;;;;;;6207378;23;20590;-89
2022/09/11 03:15:43;;;;;;;4.07;1.50;;;;;;;;;;6206541;23;20168;-90
2022/09/11 03:18:48;;;;;;;4.57;1.60;;;;;;;;;;6208098;23;20164;-90
2022/09/11 03:21:53;;;;;;;4.38;1.60;;;;;;;;;;6207519;23;20171;-89
2022/09/11 03:25:01;;;;;;;4.00;1.40;;;;;;;;;;6207081;23;20171;-89
2022/09/11 03:28:08;;;;;;;4.28;1.65;;;;;;;;;;6206132;23;20215;-89
2022/09/11 03:31:13;;;;;;;6.32;1.33;;;;;;;;;;6206178;23;20225;-90
2022/09/11 03:34:19;;;;;;;4.13;1.58;;;;;;;;;;6207574;23;20170;-89
2022/09/11 03:37:25;;;;;;;4.47;1.45;;;;;;;;;;6206976;23;20167;-89
2022/09/11 03:40:32;;;;;;;5.00;1.40;;;;;;;;;;6206514;23;20171;-90
2022/09/11 03:43:37;;;;;;;3.85;1.40;;;;;;;;;;6205156;23;20175;-89
2022/09/11 03:46:44;;;;;;;3.45;1.35;;;;;;;;;;6206367;23;20286;-89
2022/09/11 03:49:49;;;;;;;3.03;1.20;;;;;;;;;;6206324;23;20174;-89
2022/09/11 03:52:54;;;;;;;4.57;1.73;;;;;;;;;;6204386;23;20172;-88
2022/09/11 03:56:02;;;;;;;2.83;1.40;;;;;;;;;;6206331;23;20166;-88
2022/09/11 03:59:12;;;;;;;1.83;1.10;;;;;;;;;;6207334;23;20172;-90
2022/09/11 04:02:17;;;;;;;5.75;1.45;;;;;;;;;;6206551;23;20178;-89
2022/09/11 04:05:24;;;;;;;3.63;1.05;;;;;;;;;;6208210;23;20249;-90
2022/09/11 04:08:32;;;;;;;2.00;1.10;;;;;;;;;;6205696;23;20575;-86
2022/09/11 04:11:40;;;;;;;3.80;1.10;;;;;;;;;;6206413;23;20171;-89
2022/09/11 04:14:57;;;;;;;4.28;1.30;;;;;;;;;;6206769;23;20722;-89
2022/09/11 04:18:06;;;;;;;2.70;1.00;;;;;;;;;;6206892;23;20484;-90
2022/09/11 04:21:13;;;;;;;4.45;1.20;;;;;;;;;;6207050;23;20278;-89
2022/09/11 04:24:18;;;;;;;3.13;1.17;;;;;;;;;;6206966;23;20175;-89
2022/09/11 04:27:26;;;;;;;1.92;1.00;;;;;;;;;;6207188;23;20194;-88
2022/09/11 04:30:31;;;;;;;4.90;1.10;;;;;;;;;;6208427;23;20166;-89
2022/09/11 04:33:36;;;;;;;4.63;1.40;;;;;;;;;;6205513;23;20167;-89
2022/09/11 04:36:42;;;;;;;3.55;1.27;;;;;;;;;;6225356;23;20257;-89
2022/09/11 04:39:53;;;;;;;4.57;1.25;;;;;;;;;;6205469;23;20218;-90
2022/09/11 04:42:59;;;;;;;4.53;1.42;;;;;;;;;;6207258;23;20171;-90
2022/09/11 04:46:05;;;;;;;3.08;1.10;;;;;;;;;;6205839;23;20167;-88
2022/09/11 04:49:11;;;;;;;4.68;2.20;;;;;;;;;;6224178;23;20520;-89
2022/09/11 04:52:17;;;;;;;4.85;1.40;;;;;;;;;;6204416;23;20253;-88
2022/09/11 04:55:22;;;;;;;5.22;1.10;;;;;;;;;;6205272;23;20203;-88
2022/09/11 04:58:30;;;;;;;3.05;1.10;;;;;;;;;;6194517;23;20191;-87
2022/09/11 05:01:36;;;;;;;6.45;1.48;;;;;;;;;;6192297;23;20168;-88
2022/09/11 05:04:41;;;;;;;5.25;1.38;;;;;;;;;;6193238;23;20171;-89
2022/09/11 05:07:49;;;;;;;7.57;1.55;;;;;;;;;;6191946;23;20647;-89
2022/09/11 05:10:56;;;;;;;3.08;1.20;;;;;;;;;;6193197;23;20172;-88
2022/09/11 05:14:03;;;;;;;4.10;1.30;;;;;;;;;;6194031;23;20168;-89
2022/09/11 05:17:12;;;;;;;5.97;1.50;;;;;;;;;;6193281;23;20195;-89
2022/09/11 05:20:19;;;;;;;2.92;1.30;;;;;;;;;;6193434;23;20545;-88
2022/09/11 05:23:24;;;;;;;3.92;1.30;;;;;;;;;;6191397;23;20311;-88
2022/09/11 05:26:30;;;;;;;2.67;1.40;;;;;;;;;;6193931;23;20226;-88
2022/09/11 05:29:38;;;;;;;6.65;1.10;;;;;;;;;;6194107;23;20191;-88
2022/09/11 05:32:48;;;;;;;5.63;1.55;;;;;;;;;;6193513;23;20172;-88
2022/09/11 05:35:54;;;;;;;4.00;1.25;;;;;;;;;;6193184;23;20175;-87
2022/09/11 05:39:03;;;;;;;6.50;1.23;;;;;;;;;;6192902;23;20172;-88
2022/09/11 05:42:10;;;;;;;2.63;1.50;;;;;;;;;;6194186;23;20175;-88
2022/09/11 05:45:21;;;;;;;5.85;1.60;;;;;;;;;;6194306;23;20168;-88
2022/09/11 05:48:45;;;;;;;4.43;1.30;;;;;;;;;;6193389;23;20227;-88
2022/09/11 05:51:50;;;;;;;7.55;1.30;;;;;;;;;;6193807;23;20176;-89
2022/09/11 05:54:55;;;;;;;5.22;1.50;;;;;;;;;;6194798;23;20237;-90
2022/09/11 05:58:00;;;;;;;7.13;1.63;;;;;;;;;;6192680;23;20199;-89
2022/09/11 06:01:08;;;;;;;5.63;1.65;;;;;;;;;;6194854;23;20159;-88
2022/09/11 06:04:17;;;;;;;4.85;1.70;;;;;;;;;;6194699;23;20709;-89
2022/09/11 06:07:23;;;;;;;4.10;1.50;;;;;;;;;;6194551;23;20627;-88
2022/09/11 06:10:29;;;;;;;8.57;1.50;;;;;;;;;;6193556;23;20283;-87
2022/09/11 06:13:35;;;;;;;4.35;1.70;;;;;;;;;;6193258;23;20164;-88
2022/09/11 06:16:42;;;;;;;4.53;1.35;;;;;;;;;;6194403;23;20192;-88
2022/09/11 06:19:53;;;;;;;2.38;1.10;;;;;;;;;;6194370;23;20172;-89
2022/09/11 06:22:59;;;;;;;3.72;1.35;;;;;;;;;;6193876;23;20176;-87
2022/09/11 06:26:05;;;;;;;3.25;1.63;;;;;;;;;;6193986;23;20171;-91
2022/09/11 06:29:14;;;;;;;3.55;1.45;;;;;;;;;;6192366;23;20211;-88
2022/09/11 06:32:24;;;;;;;4.72;1.40;;;;;;;;;;6193940;23;20156;-89
2022/09/11 06:35:30;;;;;;;2.75;1.58;;;;;;;;;;6194221;23;20590;-90
2022/09/11 06:38:37;;;;;;;3.17;1.50;;;;;;;;;;6194229;23;20164;-89
2022/09/11 06:41:43;;;;;;;2.83;1.63;;;;;;;;;;6193315;23;20179;-87
2022/09/11 06:44:52;;;;;;;5.35;1.70;;;;;;;;;;6191658;23;20168;-88
2022/09/11 06:48:29;;;;;;;7.88;1.40;;;;;;;;;;6192999;23;20183;-90
2022/09/11 06:51:35;;;;;;;2.33;1.35;;;;;;;;;;6192468;23;20728;-90
2022/09/11 06:54:41;;;;;;;3.72;1.35;;;;;;;;;;6193330;23;20710;-89
2022/09/11 06:57:51;;;;;;;4.63;1.50;;;;;;;;;;6191411;23;20196;-89
2022/09/11 07:01:03;;;;;;;5.72;1.90;;;;;;;;;;6175865;23;20271;-89
2022/09/11 07:04:09;;;;;;;7.55;1.30;;;;;;;;;;6176286;23;20228;-89
2022/09/11 07:07:16;;;;;;;11.80;2.10;;;;;;;;;;6177107;23;20170;-89
2022/09/11 07:10:21;;;;;;;3.92;1.23;;;;;;;;;;6177099;23;20169;-91
2022/09/11 07:13:31;;;;;;;5.13;1.58;;;;;;;;;;6175798;23;20363;-88
2022/09/11 07:16:37;;;;;;;7.72;1.52;;;;;;;;;;6177784;23;20236;-89
2022/09/11 07:19:47;;;;;;;3.08;1.40;;;;;;;;;;6177006;23;20628;-89
2022/09/11 07:22:55;;;;;;;5.68;1.60;;;;;;;;;;6178295;23;20175;-89
2022/09/11 07:26:02;;;;;;;3.60;1.50;;;;;;;;;;6176736;23;20172;-91
2022/09/11 07:29:07;;;;;;;6.43;1.98;;;;;;;;;;6177535;23;20195;-89
2022/09/11 07:32:13;;;;;;;3.80;1.50;;;;;;;;;;6176684;23;20152;-90
2022/09/11 07:35:20;;;;;;;1.60;1.35;;;;;;;;;;6196498;23;20188;-89
2022/09/11 07:38:31;;;;;;;9.40;2.40;;;;;;;;;;6177777;23;20498;-90
2022/09/11 07:41:37;;;;;;;5.28;1.55;;;;;;;;;;6181673;23;20167;-89
2022/09/11 07:44:50;;;;;;;6.38;1.60;;;;;;;;;;6180162;23;20648;-89
2022/09/11 07:47:56;;;;;;;5.25;1.80;;;;;;;;;;6179674;23;20171;-89
2022/09/11 07:51:02;;;;;;;2.95;1.63;;;;;;;;;;6184507;23;20175;-89
2022/09/11 07:54:10;;;;;;;4.43;1.73;;;;;;;;;;6176957;23;20620;-91
2022/09/11 07:57:18;;;;;;;5.47;1.73;;;;;;;;;;6188752;23;20191;-90
2022/09/11 08:00:24;;;;;;;4.70;1.52;;;;;;;;;;6208707;23;20214;-91
2022/09/11 08:03:45;;;;;;;3.25;1.55;;;;;;;;;;6207136;23;20631;-90
2022/09/11 08:06:51;;;;;;;5.30;1.60;;;;;;;;;;6210328;23;20171;-90
2022/09/11 10:11:33;;;;;;;3.17;1.20;;;;;;;;;;6187929;22;20195;-90
2022/09/11 10:14:41;;;;;;;2.70;1.40;;;;;;;;;;6208675;23;20171;-89
2022/09/11 10:17:47;;;;;;;2.88;1.88;;;;;;;;;;6212105;23;20167;-91
2022/09/11 10:20:51;;;;;;;2.40;1.20;;;;;;;;;;6211908;23;20170;-90
2022/09/11 10:24:09;;;;;;;1.63;1.30;;;;;;;;;;6212239;23;20171;-90
2022/09/11 10:27:18;;;;;;;2.08;1.27;;;;;;;;;;6215079;23;20615;-90
2022/09/11 10:30:42;;;;;;;1.70;1.25;;;;;;;;;;6218545;23;20281;-89
2022/09/11 10:33:48;;;;;;;2.88;1.00;;;;;;;;;;6214858;23;20248;-90
2022/09/11 10:36:54;;;;;;;3.47;1.38;;;;;;;;;;6212069;23;20175;-88
2022/09/11 10:40:03;;;;;;;1.77;1.00;;;;;;;;;;6214316;23;20199;-88
2022/09/11 10:43:22;;;;;;;3.78;1.70;;;;;;;;;;6213208;23;20210;-89
2022/09/11 10:46:36;;;;;;;2.08;0.80;;;;;;;;;;6210732;23;20176;-90
2022/09/11 10:49:41;;;;;;;1.45;0.70;;;;;;;;;;6209546;23;20218;-91
2022/09/11 10:52:52;;;;;;;1.10;0.57;;;;;;;;;;6216066;23;20170;-88
2022/09/11 10:56:00;;;;;;;1.65;0.80;;;;;;;;;;6211956;23;20167;-89
2022/09/11 11:02:49;;;;;;;2.25;0.80;;;;;;;;;;6223089;23;20163;-89
2022/09/11 11:06:00;;;;;;;0.80;0.80;;;;;;;;;;6210974;23;20179;-90
2022/09/11 11:09:17;;;;;;;1.05;0.80;;;;;;;;;;6212383;23;20238;-89
2022/09/11 11:12:31;;;;;;;0.88;0.68;;;;;;;;;;6212518;23;20191;-89
2022/09/11 11:15:44;;;;;;;0.60;0.60;;;;;;;;;;6212445;23;20219;-90
2022/09/11 11:18:55;;;;;;;0.80;0.60;;;;;;;;;;6213462;23;20151;-88
2022/09/11 11:22:04;;;;;;;0.98;0.60;;;;;;;;;;6211660;23;20171;-90
2022/09/11 11:25:14;;;;;;;0.90;0.60;;;;;;;;;;6211327;23;20167;-90
2022/09/11 11:28:34;;;;;;;0.70;0.60;;;;;;;;;;6210928;23;20199;-91
2022/09/11 11:31:47;;;;;;;0.95;0.55;;;;;;;;;;6217521;23;20223;-91
2022/09/11 11:35:00;;;;;;;1.08;0.70;;;;;;;;;;6213502;23;20170;-91
2022/09/11 11:38:10;;;;;;;5.72;0.70;;;;;;;;;;6210680;23;20178;-89
2022/09/11 11:41:20;;;;;;;0.90;0.68;;;;;;;;;;6216258;23;20178;-90
2022/09/11 11:44:30;;;;;;;1.17;0.60;;;;;;;;;;6211941;23;20250;-91
2022/09/11 11:47:41;;;;;;;1.10;0.70;;;;;;;;;;6212621;23;20187;-90
2022/09/11 11:50:47;;;;;;;2.35;0.73;;;;;;;;;;6212212;23;20182;-90
2022/09/11 11:54:00;;;;;;;1.55;0.60;;;;;;;;;;6211188;23;20167;-88
2022/09/11 11:57:09;;;;;;;0.52;0.50;;;;;;;;;;6214407;23;20183;-90
2022/09/11 12:00:16;;;;;;;1.90;0.50;;;;;;;;;;6214435;23;20170;-89
2022/09/11 12:03:26;;;;;;;0.70;0.55;;;;;;;;;;6216818;23;20150;-91
2022/09/11 12:06:32;;;;;;;0.70;0.60;;;;;;;;;;6236554;23;20164;-92
2022/09/11 12:09:51;;;;;;;3.40;2.03;;;;;;;;;;6218447;23;20532;-91
2022/09/11 12:13:14;;;;;;;2.53;0.70;;;;;;;;;;6204004;23;20194;-90
2022/09/11 12:16:27;;;;;;;2.42;0.90;;;;;;;;;;6203198;23;20238;-91
2022/09/11 12:19:44;;;;;;;0.85;0.60;;;;;;;;;;6202726;23;20614;-90
2022/09/11 12:22:54;;;;;;;2.92;0.60;;;;;;;;;;6200987;23;20195;-90
2022/09/11 12:30:29;;;;;;;1.13;0.70;;;;;;;;;;6204360;23;20183;-90
2022/09/11 12:33:54;;;;;;;2.03;0.77;;;;;;;;;;6200135;23;20164;-89
2022/09/11 12:37:03;;;;;;;0.98;0.60;;;;;;;;;;6201191;23;20216;-90
2022/09/11 12:40:17;;;;;;;1.00;0.70;;;;;;;;;;6200084;23;20159;-90
2022/09/11 12:43:31;;;;;;;2.80;1.42;;;;;;;;;;6201231;23;20239;-91
2022/09/11 14:00:51;;;;;;;3.00;1.50;;;;;;;;;;6192078;22;20243;-89
2022/09/11 14:03:58;;;;;;;1.50;1.20;;;;;;;;;;6215470;23;20148;-89
2022/09/11 14:07:03;;;;;;;3.25;1.58;;;;;;;;;;6216441;23;20167;-89
2022/09/11 14:10:19;;;;;;;3.92;1.23;;;;;;;;;;6216212;23;20293;-89
2022/09/11 14:13:30;;;;;;;1.30;0.90;;;;;;;;;;6217995;23;20214;-90
2022/09/11 14:16:40;;;;;;;2.70;1.10;;;;;;;;;;6221544;23;20171;-90
2022/09/11 14:19:53;;;;;;;2.35;1.55;;;;;;;;;;6219668;23;20219;-90
2022/09/11 16:06:13;;;;;;;5.65;1.90;;;;;;;;;;6188773;23;20233;-89
2022/09/11 16:09:20;;;;;;;3.17;1.63;;;;;;;;;;6170544;23;20193;-87
2022/09/11 16:12:25;;;;;;;2.35;1.67;;;;;;;;;;6186795;23;20160;-88
2022/09/11 16:15:30;;;;;;;2.88;1.75;;;;;;;;;;6169143;23;20161;-88
2022/09/11 16:18:36;;;;;;;3.90;2.17;;;;;;;;;;6187216;23;20168;-88
2022/09/11 16:21:42;;;;;;;3.70;1.63;;;;;;;;;;6186497;23;20180;-89
2022/09/11 16:24:47;;;;;;;5.47;1.73;;;;;;;;;;6185027;23;20213;-90
2022/09/11 16:27:53;;;;;;;1.88;1.30;;;;;;;;;;6185331;23;20168;-89
2022/09/11 16:31:03;;;;;;;4.10;2.25;;;;;;;;;;6168564;23;20196;-90
2022/09/11 16:34:09;;;;;;;5.78;2.10;;;;;;;;;;6185602;23;20165;-90
2022/09/11 16:37:15;;;;;;;2.75;1.58;;;;;;;;;;6186451;23;20160;-91
2022/09/11 16:40:21;;;;;;;3.72;2.30;;;;;;;;;;6185155;23;20620;-90
2022/09/11 16:43:27;;;;;;;4.35;2.00;;;;;;;;;;6185654;23;20192;-89
2022/09/11 16:46:32;;;;;;;4.28;1.92;;;;;;;;;;6184880;23;20244;-88
2022/09/11 16:49:38;;;;;;;7.82;2.45;;;;;;;;;;6185619;23;20323;-88
2022/09/11 16:52:45;;;;;;;3.92;2.40;;;;;;;;;;6184179;23;20188;-90
2022/09/11 16:55:52;;;;;;;3.47;1.80;;;;;;;;;;6184934;23;20177;-90
2022/09/11 16:58:57;;;;;;;3.92;2.20;;;;;;;;;;6167376;23;20205;-89
2022/09/11 17:02:02;;;;;;;4.63;1.90;;;;;;;;;;6183579;23;20156;-89
2022/09/11 17:05:09;;;;;;;3.42;2.20;;;;;;;;;;6185643;23;20233;-90
2022/09/11 17:08:16;;;;;;;3.85;1.85;;;;;;;;;;6187115;23;20165;-88
2022/09/11 17:11:22;;;;;;;5.70;2.75;;;;;;;;;;6169675;23;20196;-89
2022/09/11 17:14:28;;;;;;;6.10;2.60;;;;;;;;;;6184403;23;20164;-89
2022/09/11 17:17:35;;;;;;;56.55;33.53;;;;;;;;;;6168406;23;20189;-91
2022/09/11 17:20:41;;;;;;;6.95;4.35;;;;;;;;;;6170178;23;20160;-87
2022/09/11 17:23:48;;;;;;;9.80;6.50;;;;;;;;;;6169461;23;20180;-89
2022/09/11 17:26:53;;;;;;;10.45;4.53;;;;;;;;;;6168223;23;20171;-89
2022/09/11 17:29:59;;;;;;;23.40;12.07;;;;;;;;;;6168673;23;20192;-87
2022/09/11 17:33:05;;;;;;;37.25;19.20;;;;;;;;;;6186925;23;20176;-89
2022/09/11 17:36:11;;;;;;;18.00;7.78;;;;;;;;;;6168990;23;20204;-90
2022/09/11 17:39:18;;;;;;;8.15;3.47;;;;;;;;;;6169529;23;20288;-90
2022/09/11 17:42:23;;;;;;;10.75;4.03;;;;;;;;;;6170251;23;20205;-90
2022/09/11 17:45:29;;;;;;;8.15;3.78;;;;;;;;;;6169692;23;20255;-90
2022/09/11 17:48:35;;;;;;;8.85;2.90;;;;;;;;;;6168253;23;20301;-89
2022/09/11 17:51:40;;;;;;;5.88;2.95;;;;;;;;;;6171227;23;20176;-90
2022/09/11 17:54:47;;;;;;;4.57;2.20;;;;;;;;;;6170054;23;20171;-89
2022/09/11 17:57:53;;;;;;;3.65;2.50;;;;;;;;;;6169831;23;20160;-91
2022/09/11 18:00:59;;;;;;;5.20;2.38;;;;;;;;;;6167891;23;20600;-90
2022/09/11 18:04:04;;;;;;;6.43;2.17;;;;;;;;;;6155628;23;20511;-90
2022/09/11 18:07:09;;;;;;;3.90;2.50;;;;;;;;;;6136893;23;20173;-89
2022/09/11 18:10:24;;;;;;;6.38;2.35;;;;;;;;;;6154993;23;20177;-90
2022/09/11 18:13:30;;;;;;;4.90;2.75;;;;;;;;;;6157095;23;20177;-89
2022/09/11 18:16:35;;;;;;;5.10;2.80;;;;;;;;;;6156073;23;20173;-91
2022/09/11 18:19:41;;;;;;;3.28;2.10;;;;;;;;;;6155123;23;20593;-89
2022/09/11 18:22:49;;;;;;;4.47;2.55;;;;;;;;;;6153147;23;20168;-89
2022/09/11 18:25:56;;;;;;;4.90;2.50;;;;;;;;;;6154555;23;20172;-91
2022/09/11 18:29:02;;;;;;;4.10;2.20;;;;;;;;;;6155070;23;20969;-90
2022/09/11 18:32:06;;;;;;;2.58;1.90;;;;;;;;;;6154991;23;20181;-90
2022/09/11 18:35:12;;;;;;;3.45;2.20;;;;;;;;;;6155620;23;20177;-89
2022/09/11 18:38:18;;;;;;;4.03;1.80;;;;;;;;;;6152795;23;20180;-91
2022/09/11 18:41:28;;;;;;;5.85;2.40;;;;;;;;;;6156630;23;20197;-90
2022/09/11 18:44:34;;;;;;;6.05;2.40;;;;;;;;;;6155595;23;20205;-89
2022/09/11 18:47:54;;;;;;;3.88;2.30;;;;;;;;;;6155012;23;20168;-90
2022/09/11 18:51:06;;;;;;;5.60;2.47;;;;;;;;;;6156481;23;20742;-91
2022/09/11 18:54:13;;;;;;;7.50;2.63;;;;;;;;;;6153676;23;20164;-89
2022/09/11 18:57:20;;;;;;;4.65;2.78;;;;;;;;;;6138051;23;20172;-91
2022/09/11 19:00:26;;;;;;;5.13;2.95;;;;;;;;;;6156143;23;20170;-90
2022/09/11 19:03:31;;;;;;;4.65;2.65;;;;;;;;;;6169919;23;20662;-88
2022/09/11 19:06:37;;;;;;;6.07;3.10;;;;;;;;;;6196656;23;20227;-90
2022/09/11 19:09:42;;;;;;;5.45;2.58;;;;;;;;;;6193951;23;20175;-89
2022/09/11 19:12:49;;;;;;;7.32;2.83;;;;;;;;;;6198541;23;20171;-90
2022/09/11 19:15:57;;;;;;;3.55;2.63;;;;;;;;;;6195268;23;20611;-90
2022/09/11 19:19:02;;;;;;;16.23;9.63;;;;;;;;;;6197667;23;20163;-90
2022/09/11 19:22:08;;;;;;;9.48;5.68;;;;;;;;;;6196459;23;20168;-90
2022/09/11 19:25:16;;;;;;;15.25;7.25;;;;;;;;;;6197933;23;20167;-90
2022/09/11 19:28:22;;;;;;;5.93;3.67;;;;;;;;;;6196673;23;20251;-89
2022/09/11 19:31:28;;;;;;;9.98;4.50;;;;;;;;;;6198064;23;20198;-90
2022/09/11 19:34:36;;;;;;;6.50;3.85;;;;;;;;;;6195923;23;20172;-90
2022/09/11 19:37:42;;;;;;;10.15;4.88;;;;;;;;;;6194020;23;20176;-89
2022/09/11 19:40:47;;;;;;;8.15;3.30;;;;;;;;;;6195075;23;20179;-91
2022/09/11 19:43:54;;;;;;;18.38;8.82;;;;;;;;;;6176855;23;20172;-90
2022/09/11 19:47:00;;;;;;;12.30;7.18;;;;;;;;;;6180407;23;20211;-90
2022/09/11 19:50:08;;;;;;;7.30;3.70;;;;;;;;;;6178806;23;20176;-91
2022/09/11 19:53:13;;;;;;;4.65;2.50;;;;;;;;;;6195603;23;20175;-87
2022/09/11 19:56:20;;;;;;;3.95;2.63;;;;;;;;;;6178084;23;20172;-92
2022/09/11 19:59:26;;;;;;;7.95;3.10;;;;;;;;;;6196619;23;20167;-90
2022/09/11 20:02:32;;;;;;;10.05;3.20;;;;;;;;;;6180178;23;20283;-90
2022/09/11 20:05:40;;;;;;;4.63;2.78;;;;;;;;;;6199407;23;20648;-90
2022/09/11 20:08:47;;;;;;;7.60;3.00;;;;;;;;;;6198619;23;20287;-89
2022/09/11 20:11:56;;;;;;;5.55;3.15;;;;;;;;;;6197835;23;20715;-89
2022/09/11 20:15:03;;;;;;;10.93;3.42;;;;;;;;;;6195945;23;20175;-89
2022/09/11 20:18:08;;;;;;;7.72;3.20;;;;;;;;;;6197452;23;20216;-89
2022/09/11 20:21:14;;;;;;;7.10;3.50;;;;;;;;;;6197462;23;20168;-90
2022/09/11 20:24:19;;;;;;;7.10;3.20;;;;;;;;;;6195501;23;20171;-88
2022/09/11 20:27:44;;;;;;;5.70;3.15;;;;;;;;;;6195815;23;20295;-90
2022/09/11 20:30:57;;;;;;;5.32;2.95;;;;;;;;;;6195125;23;20214;-90
2022/09/11 20:34:02;;;;;;;4.93;2.92;;;;;;;;;;6195499;23;20172;-91
2022/09/11 20:37:11;;;;;;;4.43;2.95;;;;;;;;;;6196338;23;20171;-88
2022/09/11 20:40:16;;;;;;;6.78;3.63;;;;;;;;;;6200171;23;20514;-90
2022/09/11 20:47:12;;;;;;;5.65;2.80;;;;;;;;;;6182416;23;20292;-91
2022/09/11 20:50:19;;;;;;;5.13;3.17;;;;;;;;;;6179254;23;20187;-90
2022/09/11 20:53:25;;;;;;;6.18;3.25;;;;;;;;;;6200828;23;20242;-90
2022/09/11 20:56:30;;;;;;;5.10;3.20;;;;;;;;;;6196211;23;20172;-89
2022/09/11 20:59:36;;;;;;;4.50;3.05;;;;;;;;;;6181570;23;20168;-87
2022/09/11 21:02:42;;;;;;;11.40;3.65;;;;;;;;;;6199705;23;20623;-90
2022/09/11 21:05:48;;;;;;;6.85;2.85;;;;;;;;;;6180149;23;20176;-88
2022/09/11 21:08:54;;;;;;;7.18;2.92;;;;;;;;;;6197157;23;20171;-89
2022/09/11 21:11:59;;;;;;;13.10;3.65;;;;;;;;;;6195522;23;20306;-89
2022/09/11 21:15:07;;;;;;;7.22;3.08;;;;;;;;;;6196494;23;20175;-92
2022/09/11 21:18:13;;;;;;;6.25;3.10;;;;;;;;;;6198276;23;20266;-91
2022/09/11 21:21:21;;;;;;;8.45;3.58;;;;;;;;;;6197387;23;20299;-90
2022/09/11 21:24:26;;;;;;;4.85;3.47;;;;;;;;;;6199555;23;20188;-90
2022/09/11 21:27:32;;;;;;;5.90;3.20;;;;;;;;;;6199053;23;20172;-91
2022/09/11 21:30:39;;;;;;;16.27;3.50;;;;;;;;;;6185296;23;20249;-89
2022/09/11 21:33:45;;;;;;;6.45;3.03;;;;;;;;;;6199046;23;20268;-90
2022/09/11 21:36:53;;;;;;;6.85;3.47;;;;;;;;;;6183626;23;20175;-91
2022/09/11 21:40:02;;;;;;;4.07;2.97;;;;;;;;;;6198401;23;20290;-90
2022/09/11 21:43:07;;;;;;;5.80;3.25;;;;;;;;;;6201793;23;20164;-89
2022/09/11 21:46:13;;;;;;;5.95;3.30;;;;;;;;;;6200604;23;20171;-89
2022/09/11 21:49:18;;;;;;;7.63;3.42;;;;;;;;;;6198914;23;20167;-89
2022/09/11 21:52:24;;;;;;;9.40;4.40;;;;;;;;;;6198160;23;20298;-87
2022/09/11 21:55:29;;;;;;;13.32;5.75;;;;;;;;;;6197766;23;20167;-90
2022/09/11 21:58:34;;;;;;;14.98;5.22;;;;;;;;;;6195543;23;20779;-90
2022/09/11 22:01:39;;;;;;;11.57;5.22;;;;;;;;;;6176630;23;20168;-89
2022/09/11 22:04:44;;;;;;;7.97;3.80;;;;;;;;;;6194100;23;20195;-91
2022/09/11 22:07:51;;;;;;;6.82;3.50;;;;;;;;;;6198730;23;20196;-92
2022/09/11 22:10:56;;;;;;;8.80;3.90;;;;;;;;;;6198248;23;20195;-89
2022/09/11 22:14:01;;;;;;;5.70;3.58;;;;;;;;;;6197894;23;20168;-89
2022/09/11 22:17:06;;;;;;;4.85;3.42;;;;;;;;;;6198231;23;20175;-89
2022/09/11 22:20:17;;;;;;;5.85;3.83;;;;;;;;;;6198861;23;20171;-89
2022/09/11 22:23:24;;;;;;;7.72;3.63;;;;;;;;;;6199118;23;20627;-92
2022/09/11 22:26:30;;;;;;;6.10;3.60;;;;;;;;;;6180420;23;20167;-86
2022/09/11 22:29:35;;;;;;;8.63;4.00;;;;;;;;;;6197307;23;20168;-89
2022/09/11 22:32:41;;;;;;;9.07;3.85;;;;;;;;;;6197874;23;20196;-90
2022/09/11 22:35:47;;;;;;;8.05;3.78;;;;;;;;;;6198529;23;20369;-89
2022/09/11 22:38:54;;;;;;;8.70;4.00;;;;;;;;;;6196836;23;20291;-90
2022/09/11 22:41:59;;;;;;;5.95;3.85;;;;;;;;;;6197988;23;20496;-92
2022/09/11 22:45:05;;;;;;;6.60;4.18;;;;;;;;;;6198570;23;20168;-88
2022/09/11 22:48:11;;;;;;;7.03;3.90;;;;;;;;;;6182816;23;20239;-90
2022/09/11 22:51:16;;;;;;;7.28;4.03;;;;;;;;;;6198023;23;20305;-89
2022/09/11 22:57:59;;;;;;;7.85;4.65;;;;;;;;;;6203710;23;20168;-90
2022/09/11 23:01:21;;;;;;;8.77;4.22;;;;;;;;;;6206234;23;20167;-89
2022/09/11 23:04:29;;;;;;;7.03;3.80;;;;;;;;;;6184097;23;20168;-89
2022/09/11 23:07:34;;;;;;;7.53;3.35;;;;;;;;;;6184859;23;20159;-92
2022/09/11 23:10:43;;;;;;;8.57;3.85;;;;;;;;;;6202088;23;20187;-89
2022/09/11 23:13:49;;;;;;;10.65;3.70;;;;;;;;;;6198632;23;20232;-88
2022/09/11 23:16:54;;;;;;;9.45;3.97;;;;;;;;;;6200419;23;20184;-89
2022/09/11 23:19:59;;;;;;;6.63;4.35;;;;;;;;;;6201149;23;20167;-90
2022/09/11 23:23:04;;;;;;;5.30;3.90;;;;;;;;;;6201491;23;20172;-90
2022/09/11 23:26:11;;;;;;;6.38;3.90;;;;;;;;;;6199924;23;20202;-92
2022/09/11 23:29:16;;;;;;;5.75;3.47;;;;;;;;;;6201274;23;20192;-90
2022/09/11 23:32:21;;;;;;;7.88;3.88;;;;;;;;;;6198630;23;20215;-90
2022/09/11 23:35:26;;;;;;;9.05;4.50;;;;;;;;;;6195631;23;20167;-89
2022/09/11 23:38:31;;;;;;;7.38;4.72;;;;;;;;;;6199297;23;20203;-90
2022/09/11 23:41:39;;;;;;;6.85;4.45;;;;;;;;;;6198549;23;20163;-88
2022/09/11 23:44:53;;;;;;;14.55;4.90;;;;;;;;;;6201019;23;20164;-89
2022/09/11 23:48:00;;;;;;;11.45;5.40;;;;;;;;;;6196397;23;20164;-90
2022/09/11 23:51:06;;;;;;;9.68;5.20;;;;;;;;;;6195513;23;20172;-90
2022/09/11 23:54:11;;;;;;;10.85;5.75;;;;;;;;;;6195384;23;20159;-90
2022/09/11 23:57:18;;;;;;;13.63;5.85;;;;;;;;;;6197019;23;20175;-89
